Terminal Aerodrome Forecast
Issued by NWS Central Illinois

Home | Current Version | Previous Version | Text Only | Print | Product List | Glossary On
Versions: 1 2 3 4 5 6 7 8 9 10 11 12 13 14 15
000
FTUS43 KILX 021725
TAFSPI
TAF
KSPI 021725Z 0218/0318 29008KT P6SM OVC045
     FM030100 30004KT P6SM BKN090
     FM031500 36004KT P6SM BKN150=

USA.gov is the U.S. government's official web portal to all federal, state and local government web resources and services.